Time;durP1;ratioP1;P1;durP2;ratioP2;P2;SDS_P1;SDS_P2;PMS_P1;PMS_P2;Temp;Humidity;BMP_temperature;BMP_pressure;BME280_temperature;BME280_humidity;BME280_pressure;Samples;Min_cycle;Max_cycle;Signal;HPM_P1;HPM_P2
2022/02/24 00:01:45;;;;;;;8.52;2.13;;;8.50;99.40;;;;;;5030761;28;20104;-73
2022/02/24 00:04:10;;;;;;;9.75;2.10;;;8.40;98.60;;;;;;5033256;28;20112;-73
2022/02/24 00:06:36;;;;;;;7.78;2.15;;;8.40;98.20;;;;;;5037026;28;20116;-73
2022/02/24 00:09:03;;;;;;;10.98;2.15;;;8.40;98.50;;;;;;5036230;28;20041;-75
2022/02/24 00:11:29;;;;;;;10.15;2.30;;;8.40;98.70;;;;;;5030188;28;20036;-73
2022/02/24 00:13:55;;;;;;;12.43;2.85;;;8.40;98.20;;;;;;5035479;28;20450;-74
2022/02/24 00:16:20;;;;;;;7.97;2.13;;;8.40;98.50;;;;;;5030624;28;20025;-74
2022/02/24 00:18:47;;;;;;;9.43;2.00;;;8.40;98.20;;;;;;5029008;28;20120;-74
2022/02/24 00:21:13;;;;;;;8.20;2.00;;;8.40;98.60;;;;;;5036190;28;20032;-74
2022/02/24 00:23:41;;;;;;;7.18;2.03;;;8.40;98.80;;;;;;5049330;28;20034;-74
2022/02/24 00:26:07;;;;;;;7.95;2.35;;;8.40;97.70;;;;;;5030815;28;20036;-73
2022/02/24 00:28:32;;;;;;;6.63;1.73;;;8.50;98.10;;;;;;5033435;28;20030;-73
2022/02/24 00:30:58;;;;;;;8.40;2.38;;;8.50;98.20;;;;;;5032130;28;20032;-73
2022/02/24 00:33:24;;;;;;;10.60;2.15;;;8.40;98.60;;;;;;5026885;28;20482;-74
2022/02/24 00:35:49;;;;;;;8.10;2.42;;;8.50;98.30;;;;;;5029182;28;20026;-73
2022/02/24 00:38:15;;;;;;;6.28;2.30;;;8.50;99.70;;;;;;5018786;28;20446;-73
2022/02/24 00:40:41;;;;;;;5.85;2.10;;;8.40;98.30;;;;;;5035612;28;20113;-73
2022/02/24 00:43:06;;;;;;;12.75;3.05;;;8.40;98.50;;;;;;5030777;28;20389;-72
2022/02/24 00:45:32;;;;;;;9.52;2.42;;;8.40;98.80;;;;;;5036577;28;20040;-73
2022/02/24 00:47:59;;;;;;;9.52;2.80;;;8.40;99.10;;;;;;5027971;28;20036;-73
2022/02/24 00:50:25;;;;;;;8.98;3.47;;;8.40;99.70;;;;;;5033483;28;20897;-72
2022/02/24 00:52:56;;;;;;;8.82;2.95;;;8.40;98.90;;;;;;5031541;28;20024;-73
2022/02/24 00:55:25;;;;;;;11.18;2.20;;;8.30;99.90;;;;;;5031372;28;20030;-73
2022/02/24 00:57:52;;;;;;;6.30;2.15;;;8.30;99.60;;;;;;5031249;28;20104;-73
2022/02/24 01:00:19;;;;;;;11.73;3.10;;;8.40;99.90;;;;;;5037357;28;20165;-74
2022/02/24 01:02:45;;;;;;;8.05;2.42;;;8.30;99.90;;;;;;5033318;28;20029;-73
2022/02/24 01:05:11;;;;;;;11.10;2.40;;;8.30;99.90;;;;;;5033759;28;20082;-73
2022/02/24 01:07:37;;;;;;;11.07;2.60;;;8.30;99.90;;;;;;5034330;28;20061;-74
2022/02/24 01:10:05;;;;;;;8.82;2.55;;;8.30;99.90;;;;;;5032591;28;20041;-73
2022/02/24 01:12:30;;;;;;;7.78;2.10;;;8.30;99.90;;;;;;5034703;28;20025;-73
2022/02/24 01:15:03;;;;;;;6.65;2.33;;;8.20;99.90;;;;;;5018214;28;20028;-74
2022/02/24 01:17:30;;;;;;;10.88;2.58;;;8.20;99.90;;;;;;5031933;28;20029;-73
2022/02/24 01:19:56;;;;;;;10.00;2.97;;;8.20;99.90;;;;;;5031571;28;20036;-73
2022/02/24 01:22:22;;;;;;;9.40;3.10;;;8.10;99.90;;;;;;5028659;28;20025;-73
2022/02/24 01:24:47;;;;;;;7.40;2.45;;;8.20;99.90;;;;;;5028141;28;20029;-74
2022/02/24 01:27:36;;;;;;;10.35;3.20;;;8.20;99.90;;;;;;5031078;28;20596;-74
2022/02/24 01:30:03;;;;;;;8.55;3.03;;;8.10;99.90;;;;;;5031558;28;20022;-74
2022/02/24 01:32:29;;;;;;;8.77;2.10;;;8.10;99.90;;;;;;5029783;28;20104;-74
2022/02/24 01:34:58;;;;;;;12.48;2.70;;;8.10;99.90;;;;;;5034446;28;20100;-73
2022/02/24 01:37:27;;;;;;;10.40;2.75;;;8.10;99.90;;;;;;5015047;28;20033;-74
2022/02/24 01:39:53;;;;;;;7.60;2.42;;;8.10;99.90;;;;;;5030652;28;20033;-74
2022/02/24 01:42:19;;;;;;;8.82;2.70;;;8.10;99.90;;;;;;5034579;28;20083;-74
2022/02/24 01:44:46;;;;;;;7.88;2.50;;;8.00;99.90;;;;;;5031004;28;20087;-74
2022/02/24 01:47:13;;;;;;;13.25;2.55;;;7.90;99.90;;;;;;5024091;28;20091;-74
2022/02/24 01:49:39;;;;;;;7.15;2.25;;;7.90;99.90;;;;;;5015713;28;20032;-73
2022/02/24 01:52:07;;;;;;;10.50;3.20;;;7.80;99.90;;;;;;5030583;28;20036;-73
2022/02/24 01:54:34;;;;;;;6.28;2.58;;;7.80;99.90;;;;;;5049638;28;20323;-73
2022/02/24 01:57:00;;;;;;;9.32;2.83;;;7.80;99.90;;;;;;5020767;28;20026;-73
2022/02/24 01:59:27;;;;;;;13.48;2.47;;;7.70;99.90;;;;;;5032933;28;20037;-73
2022/02/24 02:01:52;;;;;;;8.27;2.67;;;7.80;99.90;;;;;;5029207;28;20052;-73
2022/02/24 02:04:18;;;;;;;6.35;2.83;;;7.80;99.90;;;;;;5033098;28;20056;-73
2022/02/24 02:06:45;;;;;;;7.95;2.33;;;7.80;99.90;;;;;;5040070;28;20102;-74
2022/02/24 02:09:11;;;;;;;6.43;2.22;;;7.80;99.90;;;;;;5018373;28;20029;-73
2022/02/24 02:11:37;;;;;;;7.40;2.97;;;7.80;99.90;;;;;;5046116;28;20029;-73
2022/02/24 02:14:03;;;;;;;6.28;2.28;;;7.80;99.90;;;;;;5036794;28;20025;-73
2022/02/24 02:16:29;;;;;;;9.38;2.83;;;7.90;99.90;;;;;;5036761;28;20033;-73
2022/02/24 02:18:55;;;;;;;9.27;3.08;;;7.80;99.90;;;;;;5034224;28;20029;-73
2022/02/24 02:21:21;;;;;;;5.47;2.35;;;7.80;99.90;;;;;;5031245;28;20164;-73
2022/02/24 02:23:47;;;;;;;7.03;2.22;;;7.80;99.90;;;;;;5033284;28;20394;-73
2022/02/24 02:26:13;;;;;;;9.38;2.67;;;7.80;99.90;;;;;;5033583;28;20025;-73
2022/02/24 02:28:38;;;;;;;7.68;2.42;;;7.90;99.90;;;;;;5033591;28;20021;-73
2022/02/24 02:31:05;;;;;;;9.57;2.65;;;7.80;99.90;;;;;;5034008;28;20612;-73
2022/02/24 02:33:31;;;;;;;9.60;2.58;;;7.80;99.90;;;;;;5034218;28;20390;-73
2022/02/24 02:35:56;;;;;;;8.85;2.88;;;7.80;99.90;;;;;;5032950;28;20025;-74
2022/02/24 02:38:22;;;;;;;8.90;2.70;;;7.80;99.90;;;;;;5036818;28;20080;-72
2022/02/24 02:40:48;;;;;;;8.30;2.47;;;7.80;99.90;;;;;;5033579;28;20067;-73
2022/02/24 02:43:14;;;;;;;9.32;2.95;;;7.80;99.90;;;;;;5036721;28;20109;-73
2022/02/24 02:45:39;;;;;;;11.07;3.17;;;7.80;99.90;;;;;;5034318;28;20036;-74
2022/02/24 02:48:06;;;;;;;13.57;2.75;;;7.80;99.90;;;;;;5033051;28;20084;-73
2022/02/24 02:50:33;;;;;;;8.35;2.78;;;7.80;99.90;;;;;;5035788;28;20440;-74
2022/02/24 02:53:06;;;;;;;10.93;2.83;;;7.80;99.90;;;;;;5035670;28;20049;-73
2022/02/24 02:55:32;;;;;;;9.30;2.97;;;7.80;99.90;;;;;;5036896;28;20029;-73
2022/02/24 02:57:58;;;;;;;7.55;2.80;;;7.80;99.90;;;;;;5035733;28;20056;-73
2022/02/24 03:00:23;;;;;;;11.88;3.22;;;7.80;99.90;;;;;;5033301;28;20495;-75
2022/02/24 03:02:49;;;;;;;11.45;3.20;;;7.80;99.90;;;;;;5032607;28;20029;-73
2022/02/24 03:05:17;;;;;;;10.20;3.10;;;7.80;99.90;;;;;;5035955;28;20108;-73
2022/02/24 03:07:43;;;;;;;12.38;3.45;;;7.80;99.90;;;;;;5034103;28;20535;-73
2022/02/24 03:10:09;;;;;;;9.73;3.40;;;7.80;99.90;;;;;;5039784;28;20029;-72
2022/02/24 03:12:36;;;;;;;9.77;3.17;;;7.80;99.90;;;;;;5030554;28;20100;-73
2022/02/24 03:15:13;;;;;;;11.40;3.30;;;7.80;99.90;;;;;;5033989;28;20025;-73
2022/02/24 03:17:41;;;;;;;10.60;3.25;;;7.80;99.90;;;;;;5037987;28;20095;-73
2022/02/24 03:20:08;;;;;;;7.10;3.28;;;7.80;99.90;;;;;;5031073;28;20079;-73
2022/02/24 03:22:34;;;;;;;10.43;3.38;;;7.80;99.90;;;;;;5031916;28;20040;-74
2022/02/24 03:25:00;;;;;;;10.68;3.42;;;7.80;99.90;;;;;;5021717;28;20029;-75
2022/02/24 03:27:26;;;;;;;11.13;3.25;;;7.80;99.90;;;;;;5041770;28;20383;-74
2022/02/24 03:29:52;;;;;;;7.72;3.38;;;7.80;99.90;;;;;;5033963;28;20107;-74
2022/02/24 03:32:18;;;;;;;9.60;3.05;;;7.80;99.90;;;;;;5030949;28;20030;-74
2022/02/24 03:34:44;;;;;;;12.75;4.18;;;7.80;99.90;;;;;;5034853;28;20127;-74
2022/02/24 03:37:10;;;;;;;8.20;3.47;;;7.70;99.90;;;;;;5035638;28;20100;-75
2022/02/24 03:39:36;;;;;;;13.93;3.15;;;7.70;99.90;;;;;;5038491;28;20844;-74
2022/02/24 03:42:02;;;;;;;7.50;3.03;;;7.80;99.90;;;;;;5028897;28;20037;-74
2022/02/24 03:44:28;;;;;;;9.73;3.30;;;7.80;99.90;;;;;;5030097;28;20036;-75
2022/02/24 03:46:55;;;;;;;10.38;3.83;;;7.80;99.90;;;;;;5037624;28;20128;-74
2022/02/24 03:49:20;;;;;;;6.93;3.28;;;7.90;99.90;;;;;;5030016;28;20179;-74
2022/02/24 03:51:46;;;;;;;12.43;3.53;;;7.90;99.90;;;;;;5033376;28;20030;-75
2022/02/24 03:54:12;;;;;;;14.20;3.60;;;7.90;99.90;;;;;;5034815;28;20024;-73
2022/02/24 03:56:37;;;;;;;10.02;3.45;;;7.80;99.90;;;;;;5037171;28;20369;-73
2022/02/24 03:59:03;;;;;;;8.25;3.00;;;7.80;99.90;;;;;;5039582;28;20499;-74
2022/02/24 04:01:29;;;;;;;7.07;2.95;;;7.90;99.90;;;;;;5025726;28;20034;-73
2022/02/24 04:03:55;;;;;;;8.00;2.97;;;7.90;99.90;;;;;;5034716;28;20037;-73
2022/02/24 04:06:21;;;;;;;11.95;3.55;;;7.90;99.90;;;;;;5016098;28;20029;-73
2022/02/24 04:08:47;;;;;;;8.48;3.17;;;7.90;99.90;;;;;;5036937;28;20110;-73
2022/02/24 04:11:12;;;;;;;11.43;2.72;;;7.80;99.90;;;;;;5035072;28;20409;-73
2022/02/24 04:13:38;;;;;;;9.63;2.90;;;7.80;99.90;;;;;;5036204;28;20032;-73
2022/02/24 04:16:04;;;;;;;6.32;2.67;;;7.80;99.90;;;;;;5031631;28;20033;-73
2022/02/24 04:18:29;;;;;;;9.15;2.53;;;7.90;99.90;;;;;;5028295;28;20057;-73
2022/02/24 04:20:55;;;;;;;13.43;3.45;;;8.00;99.90;;;;;;5032626;28;20095;-74
2022/02/24 04:23:23;;;;;;;7.57;3.25;;;7.90;99.10;;;;;;5033091;28;20087;-73
2022/02/24 04:25:49;;;;;;;8.48;2.80;;;7.90;99.90;;;;;;5013495;28;20022;-75
2022/02/24 04:28:15;;;;;;;8.07;2.50;;;7.90;99.90;;;;;;5030815;28;20083;-73
2022/02/24 04:30:41;;;;;;;6.95;2.67;;;7.80;99.10;;;;;;5032875;28;20024;-73
2022/02/24 04:33:07;;;;;;;10.75;2.75;;;7.90;99.90;;;;;;5021348;28;20030;-73
2022/02/24 04:35:33;;;;;;;12.23;3.33;;;7.80;99.90;;;;;;5034118;28;21759;-73
2022/02/24 04:37:58;;;;;;;9.75;3.10;;;7.90;99.90;;;;;;5019678;28;20022;-73
2022/02/24 04:40:24;;;;;;;7.55;2.85;;;7.90;99.90;;;;;;5031198;28;20402;-73
2022/02/24 04:42:50;;;;;;;9.82;3.28;;;7.80;99.90;;;;;;5039369;28;20029;-74
2022/02/24 04:45:15;;;;;;;10.90;3.35;;;7.80;99.90;;;;;;5034281;28;20549;-73
2022/02/24 04:47:41;;;;;;;11.50;3.03;;;7.80;99.90;;;;;;5027118;28;20029;-73
2022/02/24 04:50:08;;;;;;;12.40;3.10;;;7.80;99.90;;;;;;5031369;28;20017;-73
2022/02/24 04:52:36;;;;;;;8.52;2.70;;;7.80;99.90;;;;;;5028639;28;20422;-74
2022/02/24 04:55:03;;;;;;;10.77;3.00;;;7.80;99.90;;;;;;5029151;28;20056;-74
2022/02/24 04:57:29;;;;;;;9.55;3.08;;;7.80;99.90;;;;;;5034587;28;20041;-73
2022/02/24 04:59:55;;;;;;;6.70;3.00;;;7.80;99.90;;;;;;5032119;28;20384;-73
2022/02/24 05:02:23;;;;;;;13.20;3.10;;;7.80;99.90;;;;;;5031345;28;20033;-73
2022/02/24 05:04:49;;;;;;;13.13;3.80;;;7.80;99.90;;;;;;5037362;28;20032;-73
2022/02/24 05:07:15;;;;;;;7.00;2.90;;;7.80;99.90;;;;;;5028933;28;20033;-73
2022/02/24 05:09:40;;;;;;;9.27;2.72;;;7.80;99.90;;;;;;5037116;28;20093;-73
2022/02/24 05:12:07;;;;;;;9.80;3.00;;;7.80;99.90;;;;;;5033268;28;20024;-73
2022/02/24 05:14:32;;;;;;;15.10;3.33;;;7.80;99.90;;;;;;5027155;28;20026;-74
2022/02/24 05:16:58;;;;;;;13.55;3.15;;;7.80;99.90;;;;;;5041556;28;20033;-73
2022/02/24 05:19:24;;;;;;;9.95;3.10;;;7.80;99.90;;;;;;5034569;28;20079;-73
2022/02/24 05:21:50;;;;;;;10.23;3.42;;;7.80;99.90;;;;;;5031513;28;20473;-73
2022/02/24 05:24:16;;;;;;;6.95;3.03;;;7.80;99.90;;;;;;5032948;28;20404;-74
2022/02/24 05:26:43;;;;;;;11.13;3.03;;;7.80;99.90;;;;;;5032304;28;20167;-73
2022/02/24 05:29:08;;;;;;;9.18;3.55;;;7.70;99.90;;;;;;5031424;28;20052;-73
2022/02/24 05:31:34;;;;;;;9.27;2.75;;;7.70;99.90;;;;;;5030908;28;20053;-73
2022/02/24 05:34:03;;;;;;;7.80;3.08;;;7.70;99.90;;;;;;5033981;28;20029;-73
2022/02/24 05:36:31;;;;;;;9.82;3.45;;;7.70;99.90;;;;;;5034392;28;20026;-73
2022/02/24 05:38:57;;;;;;;11.60;3.00;;;7.70;99.90;;;;;;5034696;28;20045;-73
2022/02/24 05:41:24;;;;;;;12.18;2.80;;;7.70;99.90;;;;;;5035776;28;20033;-74
2022/02/24 05:43:51;;;;;;;9.90;3.92;;;7.70;99.90;;;;;;5022567;28;20025;-73
2022/02/24 05:46:18;;;;;;;10.00;3.20;;;7.70;99.90;;;;;;5037522;28;20580;-73
2022/02/24 05:48:44;;;;;;;9.40;3.45;;;7.70;99.90;;;;;;5039895;28;20045;-73
2022/02/24 05:51:13;;;;;;;13.55;3.53;;;7.70;99.90;;;;;;5034715;28;20042;-73
2022/02/24 05:53:39;;;;;;;9.70;3.50;;;7.70;99.90;;;;;;5039966;28;20556;-73
2022/02/24 05:56:07;;;;;;;10.77;3.40;;;7.70;99.90;;;;;;5038224;28;20427;-73
2022/02/24 05:58:35;;;;;;;9.45;3.33;;;7.60;99.90;;;;;;5040394;28;20548;-73
2022/02/24 06:01:01;;;;;;;12.10;3.75;;;7.70;99.90;;;;;;5036827;28;20032;-74
2022/02/24 06:03:30;;;;;;;9.10;3.67;;;7.60;99.90;;;;;;5040033;28;20067;-73
2022/02/24 06:05:58;;;;;;;10.88;4.05;;;7.60;99.90;;;;;;5035585;28;20061;-74
2022/02/24 06:08:25;;;;;;;10.18;3.75;;;7.70;99.90;;;;;;5037656;28;20027;-71
2022/02/24 06:10:53;;;;;;;14.35;3.97;;;7.70;99.90;;;;;;5036526;28;20056;-73
2022/02/24 06:13:21;;;;;;;12.57;5.07;;;7.80;99.90;;;;;;5036572;28;20026;-73
2022/02/24 06:15:47;;;;;;;13.65;4.32;;;7.70;99.90;;;;;;5037322;28;20600;-73
2022/02/24 06:18:18;;;;;;;10.85;4.10;;;7.70;99.90;;;;;;5037954;28;20438;-75
2022/02/24 06:20:46;;;;;;;12.98;4.00;;;7.70;99.90;;;;;;5033789;28;20105;-74
2022/02/24 06:23:11;;;;;;;10.15;3.97;;;7.70;99.90;;;;;;5037434;28;20116;-74
2022/02/24 06:25:37;;;;;;;13.98;4.57;;;7.70;99.90;;;;;;5035052;28;20120;-73
2022/02/24 06:28:05;;;;;;;11.90;4.40;;;7.80;99.90;;;;;;5035691;28;20439;-74
2022/02/24 06:30:34;;;;;;;14.43;5.22;;;7.70;99.90;;;;;;5037229;28;20029;-74
2022/02/24 06:33:01;;;;;;;11.82;4.38;;;7.70;99.90;;;;;;5034504;28;20025;-74
2022/02/24 06:35:26;;;;;;;13.88;4.65;;;7.70;99.90;;;;;;5031809;28;20052;-74
2022/02/24 06:37:52;;;;;;;12.70;5.00;;;7.70;99.90;;;;;;5037917;28;20578;-74
2022/02/24 06:40:18;;;;;;;15.10;4.45;;;7.70;99.90;;;;;;5036118;28;20033;-74
2022/02/24 06:42:44;;;;;;;10.68;4.75;;;7.80;99.90;;;;;;5036593;28;20068;-80
2022/02/24 06:45:09;;;;;;;14.02;4.40;;;7.80;99.90;;;;;;5016436;28;20037;-76
2022/02/24 06:47:35;;;;;;;9.68;4.35;;;7.80;99.90;;;;;;5035832;28;20033;-75
2022/02/24 06:50:02;;;;;;;14.20;4.32;;;7.80;99.90;;;;;;5036239;28;20487;-75
2022/02/24 06:52:28;;;;;;;7.55;3.90;;;7.90;99.90;;;;;;5040744;28;20298;-75
2022/02/24 06:54:55;;;;;;;13.30;4.53;;;7.80;99.90;;;;;;5028782;28;20020;-74
2022/02/24 06:57:23;;;;;;;9.73;3.72;;;7.80;99.90;;;;;;5040797;28;20055;-75
2022/02/24 06:59:49;;;;;;;11.68;4.15;;;7.90;99.90;;;;;;5036171;28;20505;-75
2022/02/24 07:02:15;;;;;;;12.02;4.88;;;7.90;99.90;;;;;;5033596;28;20105;-74
2022/02/24 07:04:41;;;;;;;9.90;3.80;;;7.90;99.90;;;;;;5023145;28;20056;-74
2022/02/24 07:07:06;;;;;;;8.88;3.58;;;7.90;99.90;;;;;;5038103;28;20506;-74
2022/02/24 07:09:32;;;;;;;9.45;4.18;;;7.90;99.90;;;;;;5039055;28;20034;-74
2022/02/24 07:11:59;;;;;;;11.27;4.00;;;7.80;99.90;;;;;;5018488;28;20084;-74
2022/02/24 07:14:24;;;;;;;10.73;4.40;;;7.90;99.90;;;;;;5037080;28;20108;-75
2022/02/24 07:16:50;;;;;;;11.88;4.45;;;7.90;99.90;;;;;;5032271;28;20082;-75
2022/02/24 07:19:19;;;;;;;16.63;4.53;;;7.90;99.90;;;;;;5034087;28;20411;-75
2022/02/24 07:21:44;;;;;;;8.73;3.90;;;7.90;99.90;;;;;;5030114;28;20029;-74
2022/02/24 07:24:10;;;;;;;12.38;4.45;;;7.90;99.90;;;;;;5037145;28;20032;-74
2022/02/24 07:26:36;;;;;;;11.57;4.30;;;7.90;99.90;;;;;;5037012;28;20025;-75
2022/02/24 07:29:01;;;;;;;9.65;4.50;;;8.00;99.90;;;;;;5020447;28;20415;-74
2022/02/24 07:31:27;;;;;;;11.63;4.82;;;7.90;99.90;;;;;;5038960;28;20061;-74
2022/02/24 07:33:53;;;;;;;13.45;4.68;;;8.00;99.90;;;;;;5033769;28;20024;-75
2022/02/24 07:36:18;;;;;;;12.57;4.88;;;8.00;99.90;;;;;;5029435;28;20517;-75
2022/02/24 07:38:44;;;;;;;10.00;4.60;;;8.00;99.90;;;;;;5036376;28;20043;-75
2022/02/24 07:41:10;;;;;;;11.10;5.30;;;8.00;99.90;;;;;;5037492;28;20030;-75
2022/02/24 07:43:36;;;;;;;14.13;5.10;;;8.00;99.90;;;;;;5041475;28;20025;-75
2022/02/24 07:46:03;;;;;;;9.32;4.55;;;8.00;99.90;;;;;;5039324;28;20021;-74
2022/02/24 07:48:29;;;;;;;12.15;4.60;;;8.10;99.90;;;;;;5037833;28;20112;-75
2022/02/24 07:50:59;;;;;;;14.05;4.88;;;8.10;99.90;;;;;;5038668;28;20547;-75
2022/02/24 07:53:24;;;;;;;13.60;4.53;;;8.20;99.90;;;;;;5037577;28;20367;-76
2022/02/24 07:55:50;;;;;;;14.18;5.22;;;8.20;99.90;;;;;;5038222;28;20025;-74
2022/02/24 07:58:16;;;;;;;12.07;4.63;;;8.20;99.90;;;;;;5037775;28;20466;-75
2022/02/24 08:00:41;;;;;;;9.18;4.07;;;8.20;99.90;;;;;;5038368;28;20040;-74
2022/02/24 08:03:07;;;;;;;15.95;4.13;;;8.10;99.90;;;;;;5036586;28;20041;-76
2022/02/24 08:05:33;;;;;;;12.80;4.38;;;8.20;99.90;;;;;;5034503;28;20048;-74
2022/02/24 08:07:59;;;;;;;11.65;4.25;;;8.20;99.90;;;;;;5033428;28;20114;-75
2022/02/24 08:10:26;;;;;;;15.85;4.55;;;8.30;99.90;;;;;;5037380;28;20057;-73
2022/02/24 08:12:53;;;;;;;12.80;4.10;;;8.20;99.90;;;;;;5036744;28;20227;-71
2022/02/24 08:15:21;;;;;;;10.40;4.25;;;8.30;99.90;;;;;;5036640;28;20104;-72
2022/02/24 08:17:49;;;;;;;16.83;4.28;;;8.20;99.90;;;;;;5039868;28;20044;-72
2022/02/24 08:20:15;;;;;;;11.30;4.03;;;8.20;99.90;;;;;;5035886;28;20029;-72
2022/02/24 08:22:43;;;;;;;13.63;4.30;;;8.30;99.90;;;;;;5041567;28;20487;-71
2022/02/24 08:25:11;;;;;;;11.50;4.07;;;8.30;99.90;;;;;;5048621;28;20026;-73
2022/02/24 08:27:39;;;;;;;11.40;4.47;;;8.40;99.90;;;;;;5032188;28;20634;-71
2022/02/24 08:30:07;;;;;;;13.20;4.30;;;8.30;99.90;;;;;;5039076;28;20117;-72
2022/02/24 08:32:32;;;;;;;14.25;4.32;;;8.30;99.90;;;;;;5038600;28;20021;-73
2022/02/24 08:35:00;;;;;;;12.40;4.38;;;8.40;99.90;;;;;;5034940;28;20095;-73
2022/02/24 08:37:26;;;;;;;15.73;4.25;;;8.40;99.90;;;;;;5034365;28;21211;-73
2022/02/24 08:39:53;;;;;;;14.07;4.10;;;8.40;99.90;;;;;;5036398;28;20033;-73
2022/02/24 08:42:18;;;;;;;10.10;3.40;;;8.40;99.90;;;;;;5019241;28;20043;-73
2022/02/24 08:44:44;;;;;;;15.25;3.63;;;8.40;99.90;;;;;;5034826;28;20032;-72
2022/02/24 08:47:11;;;;;;;13.98;3.72;;;8.60;99.90;;;;;;5034334;28;20116;-73
2022/02/24 08:49:38;;;;;;;13.13;3.65;;;8.60;99.90;;;;;;5036366;28;20090;-72
2022/02/24 08:52:05;;;;;;;13.38;3.63;;;8.60;99.90;;;;;;5016999;28;20041;-73
2022/02/24 08:54:32;;;;;;;10.10;3.05;;;8.50;99.90;;;;;;5038809;28;20026;-76
2022/02/24 08:57:02;;;;;;;10.13;3.33;;;8.60;99.90;;;;;;5034054;28;20375;-71
2022/02/24 08:59:28;;;;;;;11.68;3.45;;;8.60;99.90;;;;;;5024949;28;20432;-71
2022/02/24 09:01:54;;;;;;;10.43;3.65;;;8.60;99.90;;;;;;5019569;28;20387;-72
2022/02/24 09:04:19;;;;;;;13.02;3.25;;;8.70;99.90;;;;;;5017562;28;20018;-72
2022/02/24 09:06:45;;;;;;;11.45;2.97;;;8.70;99.90;;;;;;5024630;28;20029;-72
2022/02/24 09:09:11;;;;;;;10.18;2.75;;;8.80;99.90;;;;;;5027330;28;20053;-72
2022/02/24 09:11:38;;;;;;;12.40;3.90;;;8.80;99.90;;;;;;5020668;28;20640;-73
2022/02/24 09:14:03;;;;;;;10.52;2.85;;;8.80;99.90;;;;;;5022537;28;20026;-73
2022/02/24 09:16:30;;;;;;;11.38;3.13;;;8.80;99.90;;;;;;5035340;28;20475;-75
2022/02/24 09:18:56;;;;;;;16.10;3.40;;;8.80;99.90;;;;;;5021386;28;20112;-73
2022/02/24 09:21:22;;;;;;;9.50;2.80;;;8.90;99.90;;;;;;5002902;28;20036;-73
2022/02/24 09:23:47;;;;;;;9.80;3.45;;;9.00;99.90;;;;;;5025257;28;20037;-72
2022/02/24 09:26:13;;;;;;;7.65;2.83;;;9.10;99.90;;;;;;5036090;28;20423;-72
2022/02/24 09:28:39;;;;;;;10.02;3.20;;;9.00;99.90;;;;;;5036055;28;20105;-72
2022/02/24 09:31:05;;;;;;;11.88;3.67;;;9.00;99.90;;;;;;5035505;28;20399;-73
2022/02/24 09:33:31;;;;;;;11.52;3.22;;;8.90;99.90;;;;;;5031407;28;20017;-72
2022/02/24 09:35:57;;;;;;;11.95;3.03;;;8.80;99.90;;;;;;5032517;28;20564;-72
2022/02/24 09:38:26;;;;;;;11.30;3.22;;;8.80;99.90;;;;;;5017540;28;20455;-73
2022/02/24 09:40:54;;;;;;;7.70;3.22;;;8.80;99.90;;;;;;5033010;28;20113;-73
2022/02/24 09:43:23;;;;;;;9.38;3.15;;;8.90;99.90;;;;;;5036806;28;20430;-73
2022/02/24 09:45:49;;;;;;;7.80;2.35;;;8.90;99.90;;;;;;5035273;28;20025;-72
2022/02/24 09:48:23;;;;;;;6.25;2.35;;;9.00;99.90;;;;;;5035205;28;20079;-73
2022/02/24 09:50:52;;;;;;;10.13;3.22;;;9.00;99.90;;;;;;5030531;28;20026;-73
2022/02/24 09:53:19;;;;;;;10.00;2.45;;;9.10;99.90;;;;;;5034757;28;20032;-72
2022/02/24 09:55:44;;;;;;;8.48;2.67;;;9.20;99.90;;;;;;5041316;28;20150;-72
2022/02/24 09:58:10;;;;;;;9.48;2.72;;;9.30;99.90;;;;;;5033620;28;20112;-73
2022/02/24 10:00:37;;;;;;;8.40;2.38;;;9.40;99.90;;;;;;5028947;28;20038;-73
2022/02/24 10:03:22;;;;;;;6.00;2.30;;;9.40;99.90;;;;;;5024689;28;20026;-72
2022/02/24 10:05:48;;;;;;;12.65;3.40;;;9.60;99.30;;;;;;5002653;28;20057;-73
2022/02/24 10:08:14;;;;;;;9.10;2.83;;;9.60;98.50;;;;;;5023447;28;20112;-72
2022/02/24 10:10:43;;;;;;;8.68;2.90;;;9.70;98.40;;;;;;5025110;28;20030;-72
2022/02/24 10:13:15;;;;;;;10.55;2.28;;;9.70;98.10;;;;;;5025348;28;20082;-72
2022/02/24 10:15:55;;;;;;;11.30;3.05;;;9.80;97.20;;;;;;5027025;28;20044;-74
2022/02/24 10:18:26;;;;;;;9.77;2.80;;;9.90;97.50;;;;;;5027337;28;20111;-73
2022/02/24 10:21:00;;;;;;;8.82;2.70;;;10.00;96.90;;;;;;5027953;28;20112;-73
2022/02/24 10:23:35;;;;;;;10.25;2.75;;;10.10;96.90;;;;;;5035813;28;20491;-72
2022/02/24 10:26:07;;;;;;;10.07;3.35;;;10.20;95.90;;;;;;5021641;28;20043;-73
2022/02/24 10:28:39;;;;;;;8.70;3.00;;;10.50;95.10;;;;;;5040512;28;20037;-73
2022/02/24 10:31:10;;;;;;;9.25;3.25;;;10.80;92.60;;;;;;5037459;28;20021;-73
2022/02/24 10:33:41;;;;;;;12.70;3.47;;;11.40;93.60;;;;;;5035648;28;20025;-75
2022/02/24 10:36:15;;;;;;;11.75;2.50;;;12.20;85.60;;;;;;5035895;28;20028;-74
2022/02/24 10:38:56;;;;;;;11.82;3.08;;;12.20;81.20;;;;;;5034599;28;20040;-74
2022/02/24 10:41:30;;;;;;;15.98;3.58;;;11.80;82.00;;;;;;5037941;28;20033;-74
2022/02/24 10:44:11;;;;;;;8.82;3.47;;;11.50;83.80;;;;;;5039293;28;20094;-74
2022/02/24 10:46:37;;;;;;;7.40;3.10;;;11.40;84.30;;;;;;5037061;28;20021;-73
2022/02/24 10:49:03;;;;;;;11.32;3.80;;;11.50;84.00;;;;;;5039813;28;20078;-74
2022/02/24 10:51:31;;;;;;;10.50;3.28;;;11.40;83.90;;;;;;5037051;28;20069;-74
2022/02/24 10:54:11;;;;;;;10.98;3.58;;;11.30;84.50;;;;;;5039681;28;20064;-74
2022/02/24 10:56:42;;;;;;;9.32;3.38;;;11.10;85.60;;;;;;5035372;28;20033;-74
2022/02/24 10:59:09;;;;;;;11.15;3.30;;;10.90;85.40;;;;;;5036977;28;20426;-74
2022/02/24 11:01:36;;;;;;;19.50;3.80;;;10.70;87.70;;;;;;5037337;28;20044;-74
2022/02/24 11:04:06;;;;;;;8.05;2.95;;;10.60;89.50;;;;;;5032296;28;20112;-73
2022/02/24 11:06:35;;;;;;;10.20;2.90;;;10.50;90.40;;;;;;5037498;28;20619;-74
2022/02/24 11:09:03;;;;;;;9.60;3.15;;;10.40;91.50;;;;;;5037283;28;20028;-75
2022/02/24 11:11:31;;;;;;;12.55;2.95;;;10.30;92.10;;;;;;5033021;28;20038;-73
2022/02/24 11:13:59;;;;;;;9.20;3.33;;;10.30;92.20;;;;;;5034484;28;20032;-73
2022/02/24 11:16:25;;;;;;;10.43;3.65;;;10.30;92.90;;;;;;5038960;28;20030;-73
2022/02/24 11:18:57;;;;;;;11.88;2.50;;;10.40;92.90;;;;;;5019760;28;20483;-74
2022/02/24 11:21:25;;;;;;;9.07;3.13;;;10.40;92.80;;;;;;5041710;28;20032;-73
2022/02/24 11:23:52;;;;;;;8.10;3.17;;;10.40;92.80;;;;;;5035984;28;20021;-74
2022/02/24 11:26:21;;;;;;;11.88;3.05;;;10.40;93.60;;;;;;5017428;28;20033;-74
2022/02/24 11:29:08;;;;;;;13.05;3.53;;;10.50;93.30;;;;;;5047619;28;20029;-73
2022/02/24 11:32:13;;;;;;;13.60;3.60;;;10.50;92.80;;;;;;5045364;28;20045;-74
2022/02/24 11:35:07;;;;;;;13.00;3.45;;;10.40;93.70;;;;;;5039208;28;20356;-73
2022/02/24 11:37:36;;;;;;;10.35;3.88;;;10.40;93.40;;;;;;5037912;28;20029;-74
2022/02/24 11:40:06;;;;;;;16.08;4.18;;;10.20;93.40;;;;;;5037103;28;20040;-74
2022/02/24 11:42:35;;;;;;;16.40;4.20;;;10.20;94.20;;;;;;5034879;28;20037;-75
2022/02/24 11:45:01;;;;;;;10.88;3.70;;;10.20;94.20;;;;;;5019401;28;20364;-75
2022/02/24 11:47:27;;;;;;;11.70;3.90;;;10.20;94.30;;;;;;5034521;28;20021;-75
2022/02/24 11:49:53;;;;;;;14.60;3.83;;;10.30;94.50;;;;;;5053864;28;20047;-75
2022/02/24 11:52:31;;;;;;;13.38;4.00;;;10.20;94.30;;;;;;5034253;28;20028;-74
2022/02/24 11:55:00;;;;;;;10.73;3.30;;;10.20;94.40;;;;;;5038839;28;20060;-74
2022/02/24 11:57:30;;;;;;;10.30;3.65;;;10.20;95.10;;;;;;5036954;28;20040;-74
2022/02/24 11:59:58;;;;;;;12.70;4.07;;;10.20;94.90;;;;;;5030266;28;20503;-74
2022/02/24 12:02:58;;;;;;;19.42;4.15;;;10.30;94.20;;;;;;5035167;28;20047;-75
2022/02/24 12:05:23;;;;;;;9.70;3.92;;;10.40;94.50;;;;;;5016119;28;20037;-74
2022/02/24 12:08:14;;;;;;;12.95;3.67;;;10.40;94.10;;;;;;5033319;28;20387;-73
2022/02/24 12:10:46;;;;;;;10.55;3.95;;;10.60;93.70;;;;;;5033619;28;20378;-73
2022/02/24 12:13:29;;;;;;;9.38;3.78;;;10.50;93.30;;;;;;5040074;28;20025;-73
2022/02/24 12:16:14;;;;;;;12.35;3.72;;;10.60;93.40;;;;;;5033085;28;20109;-73
2022/02/24 12:18:40;;;;;;;7.93;2.95;;;10.70;93.10;;;;;;5032797;28;20034;-73
2022/02/24 12:21:38;;;;;;;7.45;3.30;;;10.60;93.10;;;;;;5038624;28;20029;-73
2022/02/24 12:24:11;;;;;;;13.57;4.22;;;10.70;93.10;;;;;;5033692;28;20029;-74
2022/02/24 12:26:50;;;;;;;10.05;3.30;;;10.70;92.80;;;;;;5015318;28;20026;-73
2022/02/24 12:29:37;;;;;;;11.15;2.88;;;10.60;92.80;;;;;;5033491;28;20036;-74
2022/02/24 12:32:05;;;;;;;11.00;3.35;;;10.60;92.50;;;;;;5029790;28;20490;-74
2022/02/24 12:34:32;;;;;;;10.00;4.10;;;10.60;92.60;;;;;;5030852;28;20110;-75
2022/02/24 12:37:13;;;;;;;10.85;3.55;;;10.60;93.00;;;;;;5013759;28;20056;-74
2022/02/24 12:39:42;;;;;;;10.02;4.15;;;10.70;93.10;;;;;;5018368;28;20025;-74
2022/02/24 12:42:10;;;;;;;7.93;2.85;;;10.60;93.80;;;;;;5031979;28;20379;-73
2022/02/24 12:44:36;;;;;;;13.68;4.35;;;10.60;93.20;;;;;;5035518;28;20278;-73
2022/02/24 12:47:04;;;;;;;11.30;3.55;;;10.50;93.80;;;;;;5034937;28;20511;-74
2022/02/24 12:49:47;;;;;;;7.65;3.22;;;10.50;93.70;;;;;;5038914;28;20045;-74
2022/02/24 12:52:20;;;;;;;7.63;3.17;;;10.60;93.40;;;;;;5038047;28;20298;-74
2022/02/24 12:54:47;;;;;;;9.52;3.85;;;10.60;93.10;;;;;;5039077;28;20090;-74